sensor_id;sensor_type;location;lat;lon;timestamp;P1;durP1;ratioP1;P2;durP2;ratioP2
68192;SDS011;55012;47.562;18.414;2023-08-31T00:02:03;8.85;;;6.07;;
68192;SDS011;55012;47.562;18.414;2023-08-31T00:04:29;9.30;;;7.07;;
68192;SDS011;55012;47.562;18.414;2023-08-31T00:06:55;11.73;;;7.00;;
68192;SDS011;55012;47.562;18.414;2023-08-31T00:09:22;10.77;;;6.88;;
68192;SDS011;55012;47.562;18.414;2023-08-31T00:11:49;10.45;;;6.50;;
68192;SDS011;55012;47.562;18.414;2023-08-31T00:14:15;9.02;;;6.22;;
68192;SDS011;55012;47.562;18.414;2023-08-31T00:16:40;9.43;;;6.07;;
68192;SDS011;55012;47.562;18.414;2023-08-31T00:19:06;12.35;;;6.60;;
68192;SDS011;55012;47.562;18.414;2023-08-31T00:21:31;9.32;;;6.43;;
68192;SDS011;55012;47.562;18.414;2023-08-31T00:23:58;10.43;;;5.75;;
68192;SDS011;55012;47.562;18.414;2023-08-31T00:26:24;10.98;;;5.95;;
68192;SDS011;55012;47.562;18.414;2023-08-31T00:28:49;8.48;;;5.72;;
68192;SDS011;55012;47.562;18.414;2023-08-31T00:31:15;8.93;;;6.50;;
68192;SDS011;55012;47.562;18.414;2023-08-31T00:33:41;11.25;;;6.25;;
68192;SDS011;55012;47.562;18.414;2023-08-31T00:36:06;9.32;;;6.85;;
68192;SDS011;55012;47.562;18.414;2023-08-31T00:38:32;9.75;;;6.75;;
68192;SDS011;55012;47.562;18.414;2023-08-31T00:40:58;9.45;;;5.70;;
68192;SDS011;55012;47.562;18.414;2023-08-31T00:43:23;8.77;;;5.90;;
68192;SDS011;55012;47.562;18.414;2023-08-31T00:45:50;9.05;;;6.75;;
68192;SDS011;55012;47.562;18.414;2023-08-31T00:48:21;10.15;;;6.47;;
68192;SDS011;55012;47.562;18.414;2023-08-31T00:50:47;11.18;;;7.03;;
68192;SDS011;55012;47.562;18.414;2023-08-31T00:53:13;10.40;;;6.97;;
68192;SDS011;55012;47.562;18.414;2023-08-31T00:55:40;12.73;;;7.20;;
68192;SDS011;55012;47.562;18.414;2023-08-31T00:58:07;11.90;;;7.30;;
68192;SDS011;55012;47.562;18.414;2023-08-31T01:06:12;11.85;;;7.70;;
68192;SDS011;55012;47.562;18.414;2023-08-31T01:09:00;12.68;;;7.50;;
68192;SDS011;55012;47.562;18.414;2023-08-31T01:14:54;11.48;;;7.82;;
68192;SDS011;55012;47.562;18.414;2023-08-31T01:17:24;16.58;;;8.25;;
68192;SDS011;55012;47.562;18.414;2023-08-31T01:19:54;9.40;;;6.53;;
68192;SDS011;55012;47.562;18.414;2023-08-31T01:24:56;11.85;;;7.40;;
68192;SDS011;55012;47.562;18.414;2023-08-31T01:27:23;11.70;;;7.13;;
68192;SDS011;55012;47.562;18.414;2023-08-31T01:29:49;12.10;;;7.60;;
68192;SDS011;55012;47.562;18.414;2023-08-31T01:32:14;12.15;;;8.10;;
68192;SDS011;55012;47.562;18.414;2023-08-31T01:34:40;10.93;;;7.15;;
68192;SDS011;55012;47.562;18.414;2023-08-31T01:37:08;10.98;;;7.18;;
68192;SDS011;55012;47.562;18.414;2023-08-31T01:39:46;11.68;;;7.93;;
68192;SDS011;55012;47.562;18.414;2023-08-31T01:42:17;12.18;;;8.38;;
68192;SDS011;55012;47.562;18.414;2023-08-31T01:44:43;13.90;;;9.35;;
68192;SDS011;55012;47.562;18.414;2023-08-31T01:47:13;12.25;;;7.70;;
68192;SDS011;55012;47.562;18.414;2023-08-31T01:49:41;14.48;;;8.75;;
68192;SDS011;55012;47.562;18.414;2023-08-31T01:52:08;13.10;;;9.15;;
68192;SDS011;55012;47.562;18.414;2023-08-31T01:54:34;12.18;;;8.10;;
68192;SDS011;55012;47.562;18.414;2023-08-31T01:57:02;13.18;;;8.05;;
68192;SDS011;55012;47.562;18.414;2023-08-31T01:59:28;13.48;;;8.27;;
68192;SDS011;55012;47.562;18.414;2023-08-31T02:01:53;10.77;;;7.65;;
68192;SDS011;55012;47.562;18.414;2023-08-31T02:04:19;10.48;;;6.95;;
68192;SDS011;55012;47.562;18.414;2023-08-31T02:06:44;12.63;;;7.30;;
68192;SDS011;55012;47.562;18.414;2023-08-31T02:09:09;12.77;;;7.72;;
68192;SDS011;55012;47.562;18.414;2023-08-31T02:11:35;12.15;;;7.47;;
68192;SDS011;55012;47.562;18.414;2023-08-31T02:14:03;11.23;;;8.00;;
68192;SDS011;55012;47.562;18.414;2023-08-31T02:16:30;11.75;;;7.63;;
68192;SDS011;55012;47.562;18.414;2023-08-31T02:18:56;14.60;;;8.80;;
68192;SDS011;55012;47.562;18.414;2023-08-31T02:21:22;11.43;;;8.10;;
68192;SDS011;55012;47.562;18.414;2023-08-31T02:23:48;13.95;;;7.75;;
68192;SDS011;55012;47.562;18.414;2023-08-31T02:26:13;11.75;;;8.32;;
68192;SDS011;55012;47.562;18.414;2023-08-31T02:28:39;12.07;;;8.75;;
68192;SDS011;55012;47.562;18.414;2023-08-31T02:31:04;12.32;;;8.35;;
68192;SDS011;55012;47.562;18.414;2023-08-31T02:33:29;14.63;;;9.65;;
68192;SDS011;55012;47.562;18.414;2023-08-31T02:35:55;14.75;;;9.77;;
68192;SDS011;55012;47.562;18.414;2023-08-31T02:38:21;12.57;;;9.40;;
68192;SDS011;55012;47.562;18.414;2023-08-31T02:40:47;13.57;;;9.27;;
68192;SDS011;55012;47.562;18.414;2023-08-31T02:43:13;13.57;;;9.73;;
68192;SDS011;55012;47.562;18.414;2023-08-31T02:45:39;13.52;;;9.13;;
68192;SDS011;55012;47.562;18.414;2023-08-31T02:48:07;16.42;;;10.02;;
68192;SDS011;55012;47.562;18.414;2023-08-31T02:50:36;13.18;;;9.45;;
68192;SDS011;55012;47.562;18.414;2023-08-31T02:53:03;14.93;;;10.38;;
68192;SDS011;55012;47.562;18.414;2023-08-31T02:55:28;18.73;;;10.52;;
68192;SDS011;55012;47.562;18.414;2023-08-31T02:57:54;16.40;;;10.10;;
68192;SDS011;55012;47.562;18.414;2023-08-31T03:00:19;15.13;;;10.60;;
68192;SDS011;55012;47.562;18.414;2023-08-31T03:02:48;17.20;;;10.85;;
68192;SDS011;55012;47.562;18.414;2023-08-31T03:05:17;14.30;;;10.40;;
68192;SDS011;55012;47.562;18.414;2023-08-31T03:07:43;15.27;;;10.18;;
68192;SDS011;55012;47.562;18.414;2023-08-31T03:10:08;14.30;;;10.20;;
68192;SDS011;55012;47.562;18.414;2023-08-31T03:12:34;14.90;;;10.38;;
68192;SDS011;55012;47.562;18.414;2023-08-31T03:14:59;15.27;;;10.30;;
68192;SDS011;55012;47.562;18.414;2023-08-31T03:17:25;17.83;;;10.20;;
68192;SDS011;55012;47.562;18.414;2023-08-31T03:19:50;18.80;;;11.05;;
68192;SDS011;55012;47.562;18.414;2023-08-31T03:22:16;15.45;;;10.60;;
68192;SDS011;55012;47.562;18.414;2023-08-31T03:24:41;15.75;;;10.63;;
68192;SDS011;55012;47.562;18.414;2023-08-31T03:27:07;15.75;;;10.43;;
68192;SDS011;55012;47.562;18.414;2023-08-31T03:29:33;15.98;;;10.55;;
68192;SDS011;55012;47.562;18.414;2023-08-31T03:31:59;20.45;;;10.75;;
68192;SDS011;55012;47.562;18.414;2023-08-31T03:34:29;16.23;;;10.50;;
68192;SDS011;55012;47.562;18.414;2023-08-31T03:36:56;15.95;;;10.32;;
68192;SDS011;55012;47.562;18.414;2023-08-31T03:39:21;15.35;;;10.05;;
68192;SDS011;55012;47.562;18.414;2023-08-31T03:41:47;16.92;;;10.35;;
68192;SDS011;55012;47.562;18.414;2023-08-31T03:44:12;15.82;;;10.48;;
68192;SDS011;55012;47.562;18.414;2023-08-31T03:46:38;12.63;;;8.48;;
68192;SDS011;55012;47.562;18.414;2023-08-31T03:49:03;14.80;;;9.15;;
68192;SDS011;55012;47.562;18.414;2023-08-31T03:51:29;10.82;;;7.38;;
68192;SDS011;55012;47.562;18.414;2023-08-31T03:53:54;8.75;;;6.05;;
68192;SDS011;55012;47.562;18.414;2023-08-31T03:56:21;11.98;;;7.70;;
68192;SDS011;55012;47.562;18.414;2023-08-31T03:58:47;10.00;;;6.70;;
68192;SDS011;55012;47.562;18.414;2023-08-31T04:01:13;8.57;;;5.45;;
68192;SDS011;55012;47.562;18.414;2023-08-31T04:03:39;9.10;;;6.57;;
68192;SDS011;55012;47.562;18.414;2023-08-31T04:06:05;9.57;;;5.03;;
68192;SDS011;55012;47.562;18.414;2023-08-31T04:08:30;9.35;;;7.03;;
68192;SDS011;55012;47.562;18.414;2023-08-31T04:10:56;7.53;;;4.60;;
68192;SDS011;55012;47.562;18.414;2023-08-31T04:13:22;9.07;;;6.50;;
68192;SDS011;55012;47.562;18.414;2023-08-31T04:15:47;8.32;;;6.18;;
68192;SDS011;55012;47.562;18.414;2023-08-31T04:18:13;8.82;;;6.57;;
68192;SDS011;55012;47.562;18.414;2023-08-31T04:20:38;14.75;;;8.82;;
68192;SDS011;55012;47.562;18.414;2023-08-31T04:23:04;11.63;;;7.20;;
68192;SDS011;55012;47.562;18.414;2023-08-31T04:25:29;11.23;;;7.20;;
68192;SDS011;55012;47.562;18.414;2023-08-31T04:27:58;8.95;;;5.03;;
68192;SDS011;55012;47.562;18.414;2023-08-31T04:30:24;11.02;;;6.40;;
68192;SDS011;55012;47.562;18.414;2023-08-31T04:32:49;10.43;;;4.70;;
68192;SDS011;55012;47.562;18.414;2023-08-31T04:35:15;5.90;;;4.97;;
68192;SDS011;55012;47.562;18.414;2023-08-31T04:37:40;7.57;;;5.35;;
68192;SDS011;55012;47.562;18.414;2023-08-31T04:40:06;9.75;;;5.10;;
68192;SDS011;55012;47.562;18.414;2023-08-31T04:42:33;6.22;;;4.25;;
68192;SDS011;55012;47.562;18.414;2023-08-31T04:44:59;6.40;;;4.20;;
68192;SDS011;55012;47.562;18.414;2023-08-31T04:47:24;11.70;;;7.93;;
68192;SDS011;55012;47.562;18.414;2023-08-31T04:49:50;15.27;;;8.98;;
68192;SDS011;55012;47.562;18.414;2023-08-31T04:52:15;14.50;;;8.95;;
68192;SDS011;55012;47.562;18.414;2023-08-31T04:54:41;13.52;;;9.82;;
68192;SDS011;55012;47.562;18.414;2023-08-31T04:57:06;15.32;;;10.15;;
68192;SDS011;55012;47.562;18.414;2023-08-31T04:59:32;14.52;;;10.52;;
68192;SDS011;55012;47.562;18.414;2023-08-31T05:01:58;15.30;;;11.00;;
68192;SDS011;55012;47.562;18.414;2023-08-31T05:04:23;15.00;;;10.57;;
68192;SDS011;55012;47.562;18.414;2023-08-31T05:06:51;17.10;;;11.65;;
68192;SDS011;55012;47.562;18.414;2023-08-31T05:09:16;17.52;;;11.50;;
68192;SDS011;55012;47.562;18.414;2023-08-31T05:11:44;19.33;;;11.65;;
68192;SDS011;55012;47.562;18.414;2023-08-31T05:14:09;16.42;;;10.75;;
68192;SDS011;55012;47.562;18.414;2023-08-31T05:16:34;15.32;;;8.90;;
68192;SDS011;55012;47.562;18.414;2023-08-31T05:19:00;14.50;;;10.00;;
68192;SDS011;55012;47.562;18.414;2023-08-31T05:21:25;13.95;;;10.07;;
68192;SDS011;55012;47.562;18.414;2023-08-31T05:23:51;14.23;;;10.43;;
68192;SDS011;55012;47.562;18.414;2023-08-31T05:26:16;12.93;;;10.00;;
68192;SDS011;55012;47.562;18.414;2023-08-31T05:28:41;15.35;;;10.93;;
68192;SDS011;55012;47.562;18.414;2023-08-31T05:31:08;16.50;;;10.70;;
68192;SDS011;55012;47.562;18.414;2023-08-31T05:33:34;15.10;;;9.57;;
68192;SDS011;55012;47.562;18.414;2023-08-31T05:36:00;12.95;;;10.35;;
68192;SDS011;55012;47.562;18.414;2023-08-31T05:38:28;15.10;;;10.40;;
68192;SDS011;55012;47.562;18.414;2023-08-31T05:40:54;15.63;;;10.50;;
68192;SDS011;55012;47.562;18.414;2023-08-31T05:43:19;16.10;;;10.07;;
68192;SDS011;55012;47.562;18.414;2023-08-31T05:45:45;15.40;;;10.93;;
68192;SDS011;55012;47.562;18.414;2023-08-31T05:48:11;13.98;;;10.90;;
68192;SDS011;55012;47.562;18.414;2023-08-31T05:50:37;16.70;;;11.43;;
68192;SDS011;55012;47.562;18.414;2023-08-31T05:53:02;18.27;;;11.20;;
68192;SDS011;55012;47.562;18.414;2023-08-31T05:55:29;15.35;;;11.43;;
68192;SDS011;55012;47.562;18.414;2023-08-31T05:57:55;15.57;;;10.57;;
68192;SDS011;55012;47.562;18.414;2023-08-31T06:00:20;15.10;;;11.02;;
68192;SDS011;55012;47.562;18.414;2023-08-31T06:02:45;14.73;;;10.50;;
68192;SDS011;55012;47.562;18.414;2023-08-31T06:05:11;14.75;;;10.32;;
68192;SDS011;55012;47.562;18.414;2023-08-31T06:07:41;16.70;;;10.00;;
68192;SDS011;55012;47.562;18.414;2023-08-31T06:10:09;16.58;;;10.35;;
68192;SDS011;55012;47.562;18.414;2023-08-31T06:12:35;11.32;;;8.05;;
68192;SDS011;55012;47.562;18.414;2023-08-31T06:15:01;11.07;;;8.73;;
68192;SDS011;55012;47.562;18.414;2023-08-31T06:17:28;12.23;;;8.60;;
68192;SDS011;55012;47.562;18.414;2023-08-31T06:19:53;9.63;;;7.25;;
68192;SDS011;55012;47.562;18.414;2023-08-31T06:22:19;8.73;;;7.10;;
68192;SDS011;55012;47.562;18.414;2023-08-31T06:24:46;12.27;;;8.23;;
68192;SDS011;55012;47.562;18.414;2023-08-31T06:27:12;10.85;;;8.00;;
68192;SDS011;55012;47.562;18.414;2023-08-31T06:29:38;11.23;;;7.70;;
68192;SDS011;55012;47.562;18.414;2023-08-31T06:32:03;10.30;;;7.65;;
68192;SDS011;55012;47.562;18.414;2023-08-31T06:34:29;10.43;;;7.95;;
68192;SDS011;55012;47.562;18.414;2023-08-31T06:36:56;11.88;;;8.38;;
68192;SDS011;55012;47.562;18.414;2023-08-31T06:39:23;12.75;;;8.80;;
68192;SDS011;55012;47.562;18.414;2023-08-31T06:41:49;10.50;;;8.40;;
68192;SDS011;55012;47.562;18.414;2023-08-31T06:44:14;14.77;;;8.25;;
68192;SDS011;55012;47.562;18.414;2023-08-31T06:46:39;10.85;;;8.63;;
68192;SDS011;55012;47.562;18.414;2023-08-31T06:49:05;10.70;;;8.93;;
68192;SDS011;55012;47.562;18.414;2023-08-31T06:51:31;11.05;;;8.43;;
68192;SDS011;55012;47.562;18.414;2023-08-31T06:53:57;11.30;;;8.57;;
68192;SDS011;55012;47.562;18.414;2023-08-31T06:56:31;11.05;;;8.00;;
68192;SDS011;55012;47.562;18.414;2023-08-31T06:59:00;10.55;;;7.80;;
68192;SDS011;55012;47.562;18.414;2023-08-31T07:01:27;9.65;;;7.75;;
68192;SDS011;55012;47.562;18.414;2023-08-31T07:03:53;11.75;;;8.73;;
68192;SDS011;55012;47.562;18.414;2023-08-31T07:06:19;11.25;;;7.85;;
68192;SDS011;55012;47.562;18.414;2023-08-31T07:08:44;9.40;;;7.63;;
68192;SDS011;55012;47.562;18.414;2023-08-31T07:11:13;9.45;;;7.35;;
68192;SDS011;55012;47.562;18.414;2023-08-31T07:13:39;10.50;;;7.25;;
68192;SDS011;55012;47.562;18.414;2023-08-31T07:16:05;9.55;;;7.18;;
68192;SDS011;55012;47.562;18.414;2023-08-31T07:18:31;8.45;;;7.13;;
68192;SDS011;55012;47.562;18.414;2023-08-31T07:20:56;10.35;;;7.57;;
68192;SDS011;55012;47.562;18.414;2023-08-31T07:23:22;12.32;;;7.13;;
68192;SDS011;55012;47.562;18.414;2023-08-31T07:25:48;9.55;;;7.20;;
68192;SDS011;55012;47.562;18.414;2023-08-31T07:28:14;9.40;;;6.97;;
68192;SDS011;55012;47.562;18.414;2023-08-31T07:30:39;8.75;;;6.93;;
68192;SDS011;55012;47.562;18.414;2023-08-31T07:33:05;9.10;;;6.80;;
68192;SDS011;55012;47.562;18.414;2023-08-31T07:35:31;6.95;;;5.88;;
68192;SDS011;55012;47.562;18.414;2023-08-31T07:37:57;8.57;;;6.57;;
68192;SDS011;55012;47.562;18.414;2023-08-31T07:40:22;7.88;;;6.30;;
68192;SDS011;55012;47.562;18.414;2023-08-31T07:42:48;7.65;;;5.95;;
68192;SDS011;55012;47.562;18.414;2023-08-31T07:45:16;8.45;;;6.30;;
68192;SDS011;55012;47.562;18.414;2023-08-31T07:47:41;8.65;;;6.32;;
68192;SDS011;55012;47.562;18.414;2023-08-31T07:50:07;9.13;;;6.32;;
68192;SDS011;55012;47.562;18.414;2023-08-31T07:52:33;11.25;;;6.47;;
68192;SDS011;55012;47.562;18.414;2023-08-31T07:54:59;8.55;;;6.13;;
68192;SDS011;55012;47.562;18.414;2023-08-31T07:57:26;7.47;;;5.85;;
68192;SDS011;55012;47.562;18.414;2023-08-31T07:59:51;10.13;;;6.32;;
68192;SDS011;55012;47.562;18.414;2023-08-31T08:02:17;9.15;;;6.15;;
68192;SDS011;55012;47.562;18.414;2023-08-31T08:04:42;9.07;;;6.68;;
68192;SDS011;55012;47.562;18.414;2023-08-31T08:07:08;5.70;;;3.95;;
68192;SDS011;55012;47.562;18.414;2023-08-31T08:09:34;5.10;;;3.78;;
68192;SDS011;55012;47.562;18.414;2023-08-31T08:12:00;4.20;;;3.30;;
68192;SDS011;55012;47.562;18.414;2023-08-31T08:14:26;8.02;;;6.25;;
68192;SDS011;55012;47.562;18.414;2023-08-31T08:16:53;7.28;;;4.90;;
68192;SDS011;55012;47.562;18.414;2023-08-31T08:19:24;4.80;;;4.30;;
68192;SDS011;55012;47.562;18.414;2023-08-31T08:21:50;5.22;;;4.40;;
68192;SDS011;55012;47.562;18.414;2023-08-31T08:24:16;5.63;;;4.38;;
68192;SDS011;55012;47.562;18.414;2023-08-31T08:26:42;5.72;;;4.53;;
68192;SDS011;55012;47.562;18.414;2023-08-31T08:29:07;7.10;;;4.65;;
68192;SDS011;55012;47.562;18.414;2023-08-31T08:31:33;7.28;;;4.63;;
68192;SDS011;55012;47.562;18.414;2023-08-31T08:33:58;8.32;;;4.72;;
68192;SDS011;55012;47.562;18.414;2023-08-31T08:36:25;5.15;;;4.28;;
68192;SDS011;55012;47.562;18.414;2023-08-31T08:38:50;5.13;;;4.50;;
68192;SDS011;55012;47.562;18.414;2023-08-31T08:41:16;9.40;;;5.00;;
68192;SDS011;55012;47.562;18.414;2023-08-31T08:43:47;5.93;;;4.80;;
68192;SDS011;55012;47.562;18.414;2023-08-31T08:46:14;5.10;;;4.22;;
68192;SDS011;55012;47.562;18.414;2023-08-31T08:48:39;5.20;;;4.25;;
68192;SDS011;55012;47.562;18.414;2023-08-31T08:51:06;4.93;;;3.88;;
68192;SDS011;55012;47.562;18.414;2023-08-31T08:53:32;4.15;;;3.67;;
68192;SDS011;55012;47.562;18.414;2023-08-31T08:55:58;4.20;;;3.50;;
68192;SDS011;55012;47.562;18.414;2023-08-31T08:58:24;4.55;;;3.20;;
68192;SDS011;55012;47.562;18.414;2023-08-31T09:00:49;4.20;;;2.97;;
68192;SDS011;55012;47.562;18.414;2023-08-31T09:03:16;2.85;;;2.33;;
68192;SDS011;55012;47.562;18.414;2023-08-31T09:05:42;4.95;;;2.40;;
68192;SDS011;55012;47.562;18.414;2023-08-31T09:08:08;6.82;;;3.10;;
68192;SDS011;55012;47.562;18.414;2023-08-31T09:10:39;4.20;;;2.50;;
68192;SDS011;55012;47.562;18.414;2023-08-31T09:13:06;2.90;;;2.60;;
68192;SDS011;55012;47.562;18.414;2023-08-31T09:15:40;2.90;;;2.60;;
68192;SDS011;55012;47.562;18.414;2023-08-31T09:18:06;3.15;;;2.70;;
68192;SDS011;55012;47.562;18.414;2023-08-31T09:20:35;3.80;;;2.80;;
68192;SDS011;55012;47.562;18.414;2023-08-31T09:23:08;3.05;;;2.70;;
68192;SDS011;55012;47.562;18.414;2023-08-31T09:25:38;3.50;;;3.08;;
68192;SDS011;55012;47.562;18.414;2023-08-31T09:28:07;3.72;;;3.20;;
68192;SDS011;55012;47.562;18.414;2023-08-31T09:30:36;5.35;;;3.42;;
68192;SDS011;55012;47.562;18.414;2023-08-31T09:33:06;6.65;;;3.60;;
68192;SDS011;55012;47.562;18.414;2023-08-31T09:35:34;5.10;;;4.32;;
68192;SDS011;55012;47.562;18.414;2023-08-31T09:38:05;3.80;;;3.17;;
68192;SDS011;55012;47.562;18.414;2023-08-31T09:40:33;5.57;;;3.60;;
68192;SDS011;55012;47.562;18.414;2023-08-31T09:42:58;5.47;;;3.65;;
68192;SDS011;55012;47.562;18.414;2023-08-31T09:45:29;4.72;;;3.70;;
68192;SDS011;55012;47.562;18.414;2023-08-31T09:47:57;5.28;;;4.13;;
68192;SDS011;55012;47.562;18.414;2023-08-31T09:50:25;4.55;;;4.07;;
68192;SDS011;55012;47.562;18.414;2023-08-31T09:52:51;4.72;;;3.40;;
68192;SDS011;55012;47.562;18.414;2023-08-31T09:55:21;5.65;;;3.92;;
68192;SDS011;55012;47.562;18.414;2023-08-31T09:57:53;5.78;;;4.43;;
68192;SDS011;55012;47.562;18.414;2023-08-31T10:00:23;6.68;;;5.00;;
68192;SDS011;55012;47.562;18.414;2023-08-31T10:02:51;6.32;;;4.95;;
68192;SDS011;55012;47.562;18.414;2023-08-31T10:05:18;6.47;;;5.18;;
68192;SDS011;55012;47.562;18.414;2023-08-31T10:07:45;7.35;;;4.95;;
68192;SDS011;55012;47.562;18.414;2023-08-31T10:10:10;7.13;;;5.20;;
68192;SDS011;55012;47.562;18.414;2023-08-31T10:12:37;8.57;;;5.28;;
68192;SDS011;55012;47.562;18.414;2023-08-31T10:15:05;8.32;;;4.88;;
68192;SDS011;55012;47.562;18.414;2023-08-31T10:17:31;6.18;;;4.72;;
68192;SDS011;55012;47.562;18.414;2023-08-31T10:19:57;5.80;;;4.85;;
68192;SDS011;55012;47.562;18.414;2023-08-31T10:22:23;6.38;;;4.70;;
68192;SDS011;55012;47.562;18.414;2023-08-31T10:24:58;5.30;;;4.80;;
68192;SDS011;55012;47.562;18.414;2023-08-31T10:27:40;7.47;;;4.68;;
68192;SDS011;55012;47.562;18.414;2023-08-31T10:35:40;7.18;;;4.75;;
68192;SDS011;55012;47.562;18.414;2023-08-31T10:38:29;6.75;;;4.60;;
68192;SDS011;55012;47.562;18.414;2023-08-31T10:41:02;5.38;;;4.15;;
68192;SDS011;55012;47.562;18.414;2023-08-31T10:46:31;5.95;;;4.10;;
68192;SDS011;55012;47.562;18.414;2023-08-31T10:51:36;6.60;;;4.22;;
68192;SDS011;55012;47.562;18.414;2023-08-31T10:54:07;5.07;;;4.50;;
68192;SDS011;55012;47.562;18.414;2023-08-31T10:59:46;7.82;;;3.97;;
68192;SDS011;55012;47.562;18.414;2023-08-31T11:05:12;5.80;;;3.25;;
68192;SDS011;55012;47.562;18.414;2023-08-31T11:07:42;4.40;;;2.70;;
68192;SDS011;55012;47.562;18.414;2023-08-31T11:10:18;3.85;;;3.28;;
68192;SDS011;55012;47.562;18.414;2023-08-31T11:12:52;4.05;;;3.03;;
68192;SDS011;55012;47.562;18.414;2023-08-31T11:15:20;4.88;;;3.25;;
68192;SDS011;55012;47.562;18.414;2023-08-31T11:17:48;4.60;;;2.97;;
68192;SDS011;55012;47.562;18.414;2023-08-31T11:20:16;3.80;;;3.05;;
68192;SDS011;55012;47.562;18.414;2023-08-31T11:22:44;4.82;;;3.50;;
68192;SDS011;55012;47.562;18.414;2023-08-31T11:25:19;3.58;;;3.20;;
68192;SDS011;55012;47.562;18.414;2023-08-31T11:27:53;5.53;;;3.30;;
68192;SDS011;55012;47.562;18.414;2023-08-31T11:30:22;3.00;;;2.70;;
68192;SDS011;55012;47.562;18.414;2023-08-31T11:32:50;2.80;;;2.50;;
68192;SDS011;55012;47.562;18.414;2023-08-31T11:35:18;3.00;;;2.42;;
68192;SDS011;55012;47.562;18.414;2023-08-31T11:37:44;5.05;;;4.00;;
68192;SDS011;55012;47.562;18.414;2023-08-31T11:40:11;6.22;;;3.00;;
68192;SDS011;55012;47.562;18.414;2023-08-31T11:42:39;3.13;;;2.83;;
68192;SDS011;55012;47.562;18.414;2023-08-31T11:45:06;4.80;;;3.53;;
68192;SDS011;55012;47.562;18.414;2023-08-31T11:47:32;3.63;;;3.13;;
68192;SDS011;55012;47.562;18.414;2023-08-31T11:49:58;3.97;;;3.38;;
68192;SDS011;55012;47.562;18.414;2023-08-31T11:52:24;4.20;;;2.90;;
68192;SDS011;55012;47.562;18.414;2023-08-31T11:54:52;3.88;;;3.03;;
68192;SDS011;55012;47.562;18.414;2023-08-31T11:57:19;4.65;;;3.05;;
68192;SDS011;55012;47.562;18.414;2023-08-31T11:59:50;4.07;;;3.30;;
68192;SDS011;55012;47.562;18.414;2023-08-31T12:02:15;3.20;;;2.85;;
68192;SDS011;55012;47.562;18.414;2023-08-31T12:04:44;4.47;;;2.72;;
68192;SDS011;55012;47.562;18.414;2023-08-31T12:07:10;3.38;;;2.45;;
68192;SDS011;55012;47.562;18.414;2023-08-31T12:09:36;3.28;;;2.63;;
68192;SDS011;55012;47.562;18.414;2023-08-31T12:12:01;3.55;;;2.55;;
68192;SDS011;55012;47.562;18.414;2023-08-31T12:14:29;3.13;;;2.35;;
68192;SDS011;55012;47.562;18.414;2023-08-31T12:17:02;3.40;;;2.60;;
68192;SDS011;55012;47.562;18.414;2023-08-31T12:19:30;3.58;;;2.35;;
68192;SDS011;55012;47.562;18.414;2023-08-31T12:21:57;3.08;;;2.55;;
68192;SDS011;55012;47.562;18.414;2023-08-31T12:24:22;4.10;;;2.70;;
68192;SDS011;55012;47.562;18.414;2023-08-31T12:26:48;3.53;;;2.70;;
68192;SDS011;55012;47.562;18.414;2023-08-31T12:29:15;8.43;;;3.03;;
68192;SDS011;55012;47.562;18.414;2023-08-31T12:31:41;3.75;;;2.75;;
68192;SDS011;55012;47.562;18.414;2023-08-31T12:34:08;3.67;;;2.55;;
68192;SDS011;55012;47.562;18.414;2023-08-31T12:36:35;3.85;;;2.53;;
68192;SDS011;55012;47.562;18.414;2023-08-31T12:39:06;4.53;;;2.50;;
68192;SDS011;55012;47.562;18.414;2023-08-31T12:41:35;3.63;;;2.70;;
68192;SDS011;55012;47.562;18.414;2023-08-31T12:44:01;3.10;;;2.40;;
68192;SDS011;55012;47.562;18.414;2023-08-31T12:46:28;3.72;;;2.60;;
68192;SDS011;55012;47.562;18.414;2023-08-31T12:48:53;4.38;;;2.75;;
68192;SDS011;55012;47.562;18.414;2023-08-31T12:51:19;3.92;;;2.50;;
68192;SDS011;55012;47.562;18.414;2023-08-31T12:53:44;2.83;;;2.40;;
68192;SDS011;55012;47.562;18.414;2023-08-31T12:56:10;3.15;;;2.67;;
68192;SDS011;55012;47.562;18.414;2023-08-31T12:58:35;2.88;;;2.50;;
68192;SDS011;55012;47.562;18.414;2023-08-31T13:01:01;3.65;;;2.60;;
68192;SDS011;55012;47.562;18.414;2023-08-31T13:03:27;3.50;;;2.80;;
68192;SDS011;55012;47.562;18.414;2023-08-31T13:05:53;3.72;;;2.58;;
68192;SDS011;55012;47.562;18.414;2023-08-31T13:08:18;3.00;;;2.33;;
68192;SDS011;55012;47.562;18.414;2023-08-31T13:10:50;2.97;;;2.40;;
68192;SDS011;55012;47.562;18.414;2023-08-31T13:13:16;2.72;;;2.30;;
68192;SDS011;55012;47.562;18.414;2023-08-31T13:15:42;4.18;;;2.38;;
68192;SDS011;55012;47.562;18.414;2023-08-31T13:18:07;3.90;;;2.50;;
68192;SDS011;55012;47.562;18.414;2023-08-31T13:20:33;3.72;;;2.70;;
68192;SDS011;55012;47.562;18.414;2023-08-31T13:23:01;3.67;;;2.50;;
68192;SDS011;55012;47.562;18.414;2023-08-31T13:25:26;4.13;;;2.55;;
68192;SDS011;55012;47.562;18.414;2023-08-31T13:27:52;3.83;;;2.50;;
68192;SDS011;55012;47.562;18.414;2023-08-31T13:30:17;3.83;;;2.20;;
68192;SDS011;55012;47.562;18.414;2023-08-31T13:32:43;2.80;;;2.10;;
68192;SDS011;55012;47.562;18.414;2023-08-31T13:35:11;4.22;;;2.15;;
68192;SDS011;55012;47.562;18.414;2023-08-31T13:37:37;2.90;;;2.20;;
68192;SDS011;55012;47.562;18.414;2023-08-31T13:40:03;2.92;;;2.03;;
68192;SDS011;55012;47.562;18.414;2023-08-31T13:42:36;3.55;;;2.35;;
68192;SDS011;55012;47.562;18.414;2023-08-31T13:45:06;3.42;;;2.13;;
68192;SDS011;55012;47.562;18.414;2023-08-31T13:47:32;2.75;;;2.30;;
68192;SDS011;55012;47.562;18.414;2023-08-31T13:49:58;2.30;;;2.00;;
68192;SDS011;55012;47.562;18.414;2023-08-31T13:52:23;4.05;;;2.13;;
68192;SDS011;55012;47.562;18.414;2023-08-31T13:54:49;3.42;;;2.10;;
68192;SDS011;55012;47.562;18.414;2023-08-31T13:57:14;2.60;;;1.92;;
68192;SDS011;55012;47.562;18.414;2023-08-31T13:59:42;3.15;;;1.98;;
68192;SDS011;55012;47.562;18.414;2023-08-31T14:02:08;2.50;;;1.90;;
68192;SDS011;55012;47.562;18.414;2023-08-31T14:04:34;2.38;;;1.80;;
68192;SDS011;55012;47.562;18.414;2023-08-31T14:06:59;2.05;;;1.60;;
68192;SDS011;55012;47.562;18.414;2023-08-31T14:09:26;2.10;;;1.60;;
68192;SDS011;55012;47.562;18.414;2023-08-31T14:11:52;2.05;;;1.60;;
68192;SDS011;55012;47.562;18.414;2023-08-31T14:14:19;2.78;;;1.70;;
68192;SDS011;55012;47.562;18.414;2023-08-31T14:16:44;2.03;;;1.63;;
68192;SDS011;55012;47.562;18.414;2023-08-31T14:19:10;2.20;;;1.60;;
68192;SDS011;55012;47.562;18.414;2023-08-31T14:21:36;2.00;;;1.63;;
68192;SDS011;55012;47.562;18.414;2023-08-31T14:24:03;2.80;;;1.60;;
68192;SDS011;55012;47.562;18.414;2023-08-31T14:26:29;2.50;;;1.58;;
68192;SDS011;55012;47.562;18.414;2023-08-31T14:28:54;2.15;;;1.40;;
68192;SDS011;55012;47.562;18.414;2023-08-31T14:31:20;2.78;;;1.70;;
68192;SDS011;55012;47.562;18.414;2023-08-31T14:33:47;1.88;;;1.50;;
68192;SDS011;55012;47.562;18.414;2023-08-31T14:36:14;1.88;;;1.60;;
68192;SDS011;55012;47.562;18.414;2023-08-31T14:38:40;1.90;;;1.50;;
68192;SDS011;55012;47.562;18.414;2023-08-31T14:41:06;2.38;;;1.60;;
68192;SDS011;55012;47.562;18.414;2023-08-31T14:43:32;2.00;;;1.60;;
68192;SDS011;55012;47.562;18.414;2023-08-31T14:46:00;2.42;;;1.52;;
68192;SDS011;55012;47.562;18.414;2023-08-31T14:48:26;3.47;;;1.70;;
68192;SDS011;55012;47.562;18.414;2023-08-31T14:50:53;1.75;;;1.50;;
68192;SDS011;55012;47.562;18.414;2023-08-31T14:53:19;3.65;;;1.63;;
68192;SDS011;55012;47.562;18.414;2023-08-31T14:55:48;2.55;;;1.50;;